sensor_id;sensor_type;location;lat;lon;timestamp;pressure;altitude;pressure_sealevel;temperature;humidity
10606;BME280;5350;42.698;23.148;2022-12-18T00:00:07;94387.13;;;6.69;100.00
10606;BME280;5350;42.698;23.148;2022-12-18T00:02:34;94385.59;;;6.73;100.00
10606;BME280;5350;42.698;23.148;2022-12-18T00:05:01;94397.53;;;6.64;100.00
10606;BME280;5350;42.698;23.148;2022-12-18T00:07:28;94401.59;;;6.55;100.00
10606;BME280;5350;42.698;23.148;2022-12-18T00:09:54;94405.19;;;6.49;100.00
10606;BME280;5350;42.698;23.148;2022-12-18T00:12:21;94399.13;;;6.43;100.00
10606;BME280;5350;42.698;23.148;2022-12-18T00:14:48;94407.50;;;6.24;100.00
10606;BME280;5350;42.698;23.148;2022-12-18T00:17:16;94407.22;;;6.20;100.00
10606;BME280;5350;42.698;23.148;2022-12-18T00:19:43;94405.81;;;6.13;100.00
10606;BME280;5350;42.698;23.148;2022-12-18T00:22:09;94413.78;;;6.23;100.00
10606;BME280;5350;42.698;23.148;2022-12-18T00:24:36;94422.97;;;6.25;100.00
10606;BME280;5350;42.698;23.148;2022-12-18T00:27:03;94411.22;;;6.28;100.00
10606;BME280;5350;42.698;23.148;2022-12-18T00:29:29;94415.78;;;6.37;100.00
10606;BME280;5350;42.698;23.148;2022-12-18T00:31:56;94419.19;;;6.38;100.00
10606;BME280;5350;42.698;23.148;2022-12-18T00:34:24;94422.53;;;6.33;100.00
10606;BME280;5350;42.698;23.148;2022-12-18T00:36:51;94423.00;;;6.30;100.00
10606;BME280;5350;42.698;23.148;2022-12-18T00:39:17;94430.09;;;6.30;100.00
10606;BME280;5350;42.698;23.148;2022-12-18T00:41:44;94437.00;;;6.19;100.00
10606;BME280;5350;42.698;23.148;2022-12-18T00:44:28;94434.13;;;6.21;100.00
10606;BME280;5350;42.698;23.148;2022-12-18T00:46:55;94441.25;;;6.25;100.00
10606;BME280;5350;42.698;23.148;2022-12-18T00:49:23;94437.91;;;6.30;100.00
10606;BME280;5350;42.698;23.148;2022-12-18T00:51:50;94436.31;;;6.29;100.00
10606;BME280;5350;42.698;23.148;2022-12-18T00:54:17;94435.16;;;6.20;100.00
10606;BME280;5350;42.698;23.148;2022-12-18T00:56:44;94423.56;;;6.11;100.00
10606;BME280;5350;42.698;23.148;2022-12-18T00:59:11;94438.31;;;6.22;100.00
10606;BME280;5350;42.698;23.148;2022-12-18T01:01:37;94445.75;;;6.30;100.00
10606;BME280;5350;42.698;23.148;2022-12-18T01:04:04;94447.66;;;6.18;100.00
10606;BME280;5350;42.698;23.148;2022-12-18T01:06:32;94447.28;;;6.09;100.00
10606;BME280;5350;42.698;23.148;2022-12-18T01:08:59;94446.91;;;6.01;100.00
10606;BME280;5350;42.698;23.148;2022-12-18T01:11:26;94449.50;;;6.01;100.00
10606;BME280;5350;42.698;23.148;2022-12-18T01:13:53;94448.75;;;6.00;100.00
10606;BME280;5350;42.698;23.148;2022-12-18T01:16:21;94455.06;;;6.04;100.00
10606;BME280;5350;42.698;23.148;2022-12-18T01:18:51;94457.59;;;5.83;100.00
10606;BME280;5350;42.698;23.148;2022-12-18T01:21:18;94454.84;;;5.73;100.00
10606;BME280;5350;42.698;23.148;2022-12-18T01:23:47;94458.72;;;5.53;100.00
10606;BME280;5350;42.698;23.148;2022-12-18T01:26:17;94468.34;;;5.53;100.00
10606;BME280;5350;42.698;23.148;2022-12-18T01:28:44;94456.03;;;5.48;100.00
10606;BME280;5350;42.698;23.148;2022-12-18T01:31:12;94463.53;;;5.61;100.00
10606;BME280;5350;42.698;23.148;2022-12-18T01:33:39;94457.59;;;5.66;100.00
10606;BME280;5350;42.698;23.148;2022-12-18T01:36:07;94470.25;;;5.57;100.00
10606;BME280;5350;42.698;23.148;2022-12-18T01:38:34;94468.19;;;5.59;100.00
10606;BME280;5350;42.698;23.148;2022-12-18T01:41:02;94470.09;;;5.47;100.00
10606;BME280;5350;42.698;23.148;2022-12-18T01:43:50;94473.41;;;5.26;100.00
10606;BME280;5350;42.698;23.148;2022-12-18T01:46:19;94465.47;;;5.05;100.00
10606;BME280;5350;42.698;23.148;2022-12-18T01:48:52;94478.91;;;5.13;100.00
10606;BME280;5350;42.698;23.148;2022-12-18T01:51:19;94483.88;;;4.98;100.00
10606;BME280;5350;42.698;23.148;2022-12-18T01:53:47;94475.50;;;4.96;100.00
10606;BME280;5350;42.698;23.148;2022-12-18T01:56:17;94477.72;;;5.04;100.00
10606;BME280;5350;42.698;23.148;2022-12-18T01:58:50;94485.06;;;5.07;100.00
10606;BME280;5350;42.698;23.148;2022-12-18T02:01:18;94488.53;;;4.96;100.00
10606;BME280;5350;42.698;23.148;2022-12-18T02:03:44;94477.53;;;4.94;100.00
10606;BME280;5350;42.698;23.148;2022-12-18T02:06:15;94481.44;;;5.08;100.00
10606;BME280;5350;42.698;23.148;2022-12-18T02:08:50;94484.59;;;5.10;100.00
10606;BME280;5350;42.698;23.148;2022-12-18T02:11:32;94493.00;;;5.12;100.00
10606;BME280;5350;42.698;23.148;2022-12-18T02:14:06;94492.31;;;5.05;100.00
10606;BME280;5350;42.698;23.148;2022-12-18T02:16:39;94497.34;;;4.95;100.00
10606;BME280;5350;42.698;23.148;2022-12-18T02:19:27;94499.59;;;5.03;100.00
10606;BME280;5350;42.698;23.148;2022-12-18T02:22:08;94504.72;;;4.98;100.00
10606;BME280;5350;42.698;23.148;2022-12-18T02:24:45;94501.09;;;4.99;100.00
10606;BME280;5350;42.698;23.148;2022-12-18T02:27:17;94503.41;;;5.12;100.00
10606;BME280;5350;42.698;23.148;2022-12-18T02:29:49;94504.22;;;5.13;100.00
10606;BME280;5350;42.698;23.148;2022-12-18T02:32:20;94509.56;;;5.06;100.00
10606;BME280;5350;42.698;23.148;2022-12-18T02:34:50;94489.91;;;4.87;100.00
10606;BME280;5350;42.698;23.148;2022-12-18T02:37:19;94503.13;;;4.69;100.00
10606;BME280;5350;42.698;23.148;2022-12-18T02:39:48;94527.16;;;4.71;100.00
10606;BME280;5350;42.698;23.148;2022-12-18T02:42:19;94521.00;;;4.77;100.00
10606;BME280;5350;42.698;23.148;2022-12-18T02:44:48;94526.47;;;4.64;100.00
10606;BME280;5350;42.698;23.148;2022-12-18T02:47:17;94524.44;;;4.66;100.00
10606;BME280;5350;42.698;23.148;2022-12-18T02:49:52;94529.31;;;4.62;100.00
10606;BME280;5350;42.698;23.148;2022-12-18T02:52:26;94523.19;;;4.57;100.00
10606;BME280;5350;42.698;23.148;2022-12-18T02:55:02;94534.66;;;4.56;100.00
10606;BME280;5350;42.698;23.148;2022-12-18T02:57:40;94534.53;;;4.51;100.00
10606;BME280;5350;42.698;23.148;2022-12-18T03:00:12;94546.69;;;4.34;100.00
10606;BME280;5350;42.698;23.148;2022-12-18T03:02:44;94537.69;;;4.53;100.00
10606;BME280;5350;42.698;23.148;2022-12-18T03:05:17;94543.63;;;4.37;100.00
10606;BME280;5350;42.698;23.148;2022-12-18T03:07:50;94547.56;;;4.28;100.00
10606;BME280;5350;42.698;23.148;2022-12-18T03:10:26;94548.75;;;4.32;100.00
10606;BME280;5350;42.698;23.148;2022-12-18T03:13:00;94546.09;;;4.43;100.00
10606;BME280;5350;42.698;23.148;2022-12-18T03:15:30;94552.56;;;4.41;100.00
10606;BME280;5350;42.698;23.148;2022-12-18T03:18:02;94557.44;;;4.37;100.00
10606;BME280;5350;42.698;23.148;2022-12-18T03:20:31;94551.31;;;4.43;100.00
10606;BME280;5350;42.698;23.148;2022-12-18T03:23:05;94557.97;;;4.51;100.00
10606;BME280;5350;42.698;23.148;2022-12-18T03:25:34;94563.19;;;4.51;100.00
10606;BME280;5350;42.698;23.148;2022-12-18T03:28:05;94564.91;;;4.45;100.00
10606;BME280;5350;42.698;23.148;2022-12-18T03:30:38;94565.69;;;4.34;100.00
10606;BME280;5350;42.698;23.148;2022-12-18T03:33:09;94570.25;;;4.27;100.00
10606;BME280;5350;42.698;23.148;2022-12-18T03:35:40;94574.78;;;4.20;100.00
10606;BME280;5350;42.698;23.148;2022-12-18T03:38:09;94581.91;;;4.25;100.00
10606;BME280;5350;42.698;23.148;2022-12-18T03:40:43;94576.81;;;4.18;100.00
10606;BME280;5350;42.698;23.148;2022-12-18T03:43:19;94582.34;;;4.22;100.00
10606;BME280;5350;42.698;23.148;2022-12-18T03:45:51;94590.63;;;4.19;100.00
10606;BME280;5350;42.698;23.148;2022-12-18T03:48:23;94605.13;;;4.15;100.00
10606;BME280;5350;42.698;23.148;2022-12-18T03:50:56;94587.47;;;4.17;100.00
10606;BME280;5350;42.698;23.148;2022-12-18T03:53:31;94597.06;;;4.16;100.00
10606;BME280;5350;42.698;23.148;2022-12-18T03:56:02;94605.13;;;4.15;100.00
10606;BME280;5350;42.698;23.148;2022-12-18T03:58:32;94595.84;;;4.19;100.00
10606;BME280;5350;42.698;23.148;2022-12-18T04:01:02;94597.38;;;3.96;100.00
10606;BME280;5350;42.698;23.148;2022-12-18T04:03:31;94597.38;;;3.96;100.00
10606;BME280;5350;42.698;23.148;2022-12-18T04:06:00;94606.94;;;4.02;100.00
10606;BME280;5350;42.698;23.148;2022-12-18T04:08:27;94584.38;;;4.08;100.00
10606;BME280;5350;42.698;23.148;2022-12-18T04:10:55;94596.84;;;4.18;100.00
10606;BME280;5350;42.698;23.148;2022-12-18T04:13:22;94604.88;;;4.04;100.00
10606;BME280;5350;42.698;23.148;2022-12-18T04:15:50;94605.31;;;4.01;100.00
10606;BME280;5350;42.698;23.148;2022-12-18T04:18:18;94601.91;;;3.89;100.00
10606;BME280;5350;42.698;23.148;2022-12-18T04:20:45;94605.75;;;3.98;100.00
10606;BME280;5350;42.698;23.148;2022-12-18T04:23:12;94604.53;;;3.89;100.00
10606;BME280;5350;42.698;23.148;2022-12-18T04:25:38;94619.19;;;3.84;100.00
10606;BME280;5350;42.698;23.148;2022-12-18T04:28:05;94620.13;;;3.89;100.00
10606;BME280;5350;42.698;23.148;2022-12-18T04:30:32;94614.78;;;3.84;100.00
10606;BME280;5350;42.698;23.148;2022-12-18T04:33:00;94634.97;;;4.00;100.00
10606;BME280;5350;42.698;23.148;2022-12-18T04:35:27;94631.03;;;4.10;100.00
10606;BME280;5350;42.698;23.148;2022-12-18T04:37:53;94640.88;;;3.96;100.00
10606;BME280;5350;42.698;23.148;2022-12-18T04:40:20;94641.78;;;4.01;100.00
10606;BME280;5350;42.698;23.148;2022-12-18T04:42:47;94645.19;;;4.14;100.00
10606;BME280;5350;42.698;23.148;2022-12-18T04:45:13;94650.84;;;4.11;100.00
10606;BME280;5350;42.698;23.148;2022-12-18T04:47:40;94653.47;;;4.11;100.00
10606;BME280;5350;42.698;23.148;2022-12-18T04:50:08;94653.47;;;4.22;100.00
10606;BME280;5350;42.698;23.148;2022-12-18T04:52:35;94666.16;;;4.30;100.00
10606;BME280;5350;42.698;23.148;2022-12-18T04:55:02;94662.78;;;4.41;100.00
10606;BME280;5350;42.698;23.148;2022-12-18T04:57:29;94670.34;;;4.43;100.00
10606;BME280;5350;42.698;23.148;2022-12-18T04:59:56;94674.56;;;4.44;100.00
10606;BME280;5350;42.698;23.148;2022-12-18T05:02:22;94680.09;;;4.36;100.00
10606;BME280;5350;42.698;23.148;2022-12-18T05:04:49;94677.38;;;4.19;100.00
10606;BME280;5350;42.698;23.148;2022-12-18T05:07:17;94672.34;;;4.18;100.00
10606;BME280;5350;42.698;23.148;2022-12-18T05:09:44;94684.78;;;4.04;100.00
10606;BME280;5350;42.698;23.148;2022-12-18T05:12:10;94681.06;;;4.12;100.00
10606;BME280;5350;42.698;23.148;2022-12-18T05:14:37;94680.50;;;4.10;100.00
10606;BME280;5350;42.698;23.148;2022-12-18T05:17:04;94684.47;;;4.12;100.00
10606;BME280;5350;42.698;23.148;2022-12-18T05:19:30;94689.59;;;4.19;100.00
10606;BME280;5350;42.698;23.148;2022-12-18T05:21:57;94685.31;;;3.94;100.00
10606;BME280;5350;42.698;23.148;2022-12-18T05:24:25;94708.22;;;4.04;100.00
10606;BME280;5350;42.698;23.148;2022-12-18T05:26:52;94700.75;;;3.96;100.00
10606;BME280;5350;42.698;23.148;2022-12-18T05:29:19;94715.22;;;3.92;100.00
10606;BME280;5350;42.698;23.148;2022-12-18T05:31:45;94718.19;;;4.07;100.00
10606;BME280;5350;42.698;23.148;2022-12-18T05:34:12;94701.63;;;3.90;100.00
10606;BME280;5350;42.698;23.148;2022-12-18T05:36:39;94717.50;;;4.00;100.00
10606;BME280;5350;42.698;23.148;2022-12-18T05:39:06;94730.38;;;3.95;100.00
10606;BME280;5350;42.698;23.148;2022-12-18T05:41:34;94735.66;;;3.88;100.00
10606;BME280;5350;42.698;23.148;2022-12-18T05:44:01;94734.59;;;3.78;100.00
10606;BME280;5350;42.698;23.148;2022-12-18T05:46:28;94734.25;;;3.74;100.00
10606;BME280;5350;42.698;23.148;2022-12-18T05:48:58;94780.09;;;3.75;100.00
10606;BME280;5350;42.698;23.148;2022-12-18T05:51:25;94745.50;;;3.86;100.00
10606;BME280;5350;42.698;23.148;2022-12-18T05:53:52;94750.53;;;3.99;100.00
10606;BME280;5350;42.698;23.148;2022-12-18T05:56:19;94741.31;;;3.85;100.00
10606;BME280;5350;42.698;23.148;2022-12-18T05:58:51;94752.88;;;3.89;100.00
10606;BME280;5350;42.698;23.148;2022-12-18T06:01:20;94754.13;;;3.87;100.00
10606;BME280;5350;42.698;23.148;2022-12-18T06:03:47;94764.91;;;3.72;100.00
10606;BME280;5350;42.698;23.148;2022-12-18T06:06:15;94762.72;;;3.69;100.00
10606;BME280;5350;42.698;23.148;2022-12-18T06:08:43;94747.72;;;3.53;100.00
10606;BME280;5350;42.698;23.148;2022-12-18T06:11:10;94787.19;;;3.50;100.00
10606;BME280;5350;42.698;23.148;2022-12-18T06:13:37;94776.69;;;3.39;100.00
10606;BME280;5350;42.698;23.148;2022-12-18T06:16:06;94771.50;;;3.39;100.00
10606;BME280;5350;42.698;23.148;2022-12-18T06:18:33;94776.47;;;3.40;100.00
10606;BME280;5350;42.698;23.148;2022-12-18T06:21:00;94773.59;;;3.30;100.00
10606;BME280;5350;42.698;23.148;2022-12-18T06:23:27;94775.84;;;3.45;100.00
10606;BME280;5350;42.698;23.148;2022-12-18T06:25:54;94774.03;;;3.45;100.00
10606;BME280;5350;42.698;23.148;2022-12-18T06:28:21;94776.22;;;3.48;100.00
10606;BME280;5350;42.698;23.148;2022-12-18T06:30:48;94773.44;;;3.61;100.00
10606;BME280;5350;42.698;23.148;2022-12-18T06:33:17;94778.78;;;3.66;100.00
10606;BME280;5350;42.698;23.148;2022-12-18T06:35:43;94782.41;;;3.65;100.00
10606;BME280;5350;42.698;23.148;2022-12-18T06:38:10;94780.75;;;3.71;100.00
10606;BME280;5350;42.698;23.148;2022-12-18T06:40:38;94783.28;;;3.77;100.00
10606;BME280;5350;42.698;23.148;2022-12-18T06:43:05;94794.69;;;3.76;100.00
10606;BME280;5350;42.698;23.148;2022-12-18T06:45:33;94793.81;;;3.82;100.00
10606;BME280;5350;42.698;23.148;2022-12-18T06:47:59;94796.56;;;3.87;100.00
10606;BME280;5350;42.698;23.148;2022-12-18T06:50:28;94802.19;;;4.02;100.00
10606;BME280;5350;42.698;23.148;2022-12-18T06:52:55;94823.03;;;4.02;100.00
10606;BME280;5350;42.698;23.148;2022-12-18T06:55:21;94806.63;;;4.14;100.00
10606;BME280;5350;42.698;23.148;2022-12-18T06:57:48;94807.91;;;4.23;100.00
10606;BME280;5350;42.698;23.148;2022-12-18T07:00:15;94808.75;;;4.35;100.00
10606;BME280;5350;42.698;23.148;2022-12-18T07:02:42;94811.25;;;4.30;100.00
10606;BME280;5350;42.698;23.148;2022-12-18T07:05:09;94809.63;;;4.29;100.00
10606;BME280;5350;42.698;23.148;2022-12-18T07:07:37;94814.63;;;4.30;100.00
10606;BME280;5350;42.698;23.148;2022-12-18T07:10:04;94814.09;;;4.40;100.00
10606;BME280;5350;42.698;23.148;2022-12-18T07:12:31;94821.28;;;4.56;100.00
10606;BME280;5350;42.698;23.148;2022-12-18T07:14:58;94827.28;;;4.56;100.00
10606;BME280;5350;42.698;23.148;2022-12-18T07:17:25;94821.28;;;4.56;100.00
10606;BME280;5350;42.698;23.148;2022-12-18T07:19:51;94824.28;;;4.71;100.00
10606;BME280;5350;42.698;23.148;2022-12-18T07:22:18;94834.22;;;4.74;100.00
10606;BME280;5350;42.698;23.148;2022-12-18T07:24:50;94830.56;;;4.52;100.00
10606;BME280;5350;42.698;23.148;2022-12-18T07:27:17;94836.13;;;4.55;100.00
10606;BME280;5350;42.698;23.148;2022-12-18T07:29:43;94829.81;;;4.63;100.00
10606;BME280;5350;42.698;23.148;2022-12-18T07:32:10;94836.41;;;4.77;100.00
10606;BME280;5350;42.698;23.148;2022-12-18T07:34:37;94839.44;;;4.74;100.00
10606;BME280;5350;42.698;23.148;2022-12-18T07:37:03;94844.22;;;4.77;100.00
10606;BME280;5350;42.698;23.148;2022-12-18T07:39:31;94845.94;;;4.83;100.00
10606;BME280;5350;42.698;23.148;2022-12-18T07:41:59;94854.19;;;4.80;100.00
10606;BME280;5350;42.698;23.148;2022-12-18T07:44:39;94845.94;;;4.83;100.00
10606;BME280;5350;42.698;23.148;2022-12-18T07:47:06;94850.47;;;4.88;100.00
10606;BME280;5350;42.698;23.148;2022-12-18T07:49:33;94853.56;;;4.96;100.00
10606;BME280;5350;42.698;23.148;2022-12-18T07:51:59;94854.66;;;4.77;100.00
10606;BME280;5350;42.698;23.148;2022-12-18T07:54:27;94857.84;;;4.79;100.00
10606;BME280;5350;42.698;23.148;2022-12-18T07:56:53;94855.00;;;4.80;100.00
10606;BME280;5350;42.698;23.148;2022-12-18T07:59:21;94869.59;;;4.70;100.00
10606;BME280;5350;42.698;23.148;2022-12-18T08:01:48;94866.66;;;4.78;100.00
10606;BME280;5350;42.698;23.148;2022-12-18T08:04:15;94874.63;;;4.83;100.00
10606;BME280;5350;42.698;23.148;2022-12-18T08:06:42;94869.97;;;4.85;100.00
10606;BME280;5350;42.698;23.148;2022-12-18T08:09:09;94876.19;;;4.84;100.00
10606;BME280;5350;42.698;23.148;2022-12-18T08:11:36;94875.50;;;4.77;100.00
10606;BME280;5350;42.698;23.148;2022-12-18T08:14:03;94882.13;;;4.91;100.00
10606;BME280;5350;42.698;23.148;2022-12-18T08:16:31;94884.16;;;5.01;100.00
10606;BME280;5350;42.698;23.148;2022-12-18T08:18:58;94888.94;;;4.92;100.00
10606;BME280;5350;42.698;23.148;2022-12-18T08:21:26;94883.25;;;4.83;100.00
10606;BME280;5350;42.698;23.148;2022-12-18T08:23:57;94892.44;;;4.98;100.00
10606;BME280;5350;42.698;23.148;2022-12-18T08:26:25;94898.91;;;4.95;100.00
10606;BME280;5350;42.698;23.148;2022-12-18T08:28:53;94894.81;;;4.99;100.00
10606;BME280;5350;42.698;23.148;2022-12-18T08:31:20;94894.38;;;5.02;100.00
10606;BME280;5350;42.698;23.148;2022-12-18T08:33:49;94899.41;;;4.74;100.00
10606;BME280;5350;42.698;23.148;2022-12-18T08:36:18;94904.59;;;4.62;100.00
10606;BME280;5350;42.698;23.148;2022-12-18T08:38:45;94909.34;;;4.65;100.00
10606;BME280;5350;42.698;23.148;2022-12-18T08:41:14;94913.06;;;4.58;100.00
10606;BME280;5350;42.698;23.148;2022-12-18T08:43:41;94897.53;;;4.33;100.00
10606;BME280;5350;42.698;23.148;2022-12-18T08:46:27;94915.78;;;4.33;100.00
10606;BME280;5350;42.698;23.148;2022-12-18T08:48:55;94910.13;;;4.36;100.00
10606;BME280;5350;42.698;23.148;2022-12-18T08:51:22;94916.94;;;4.37;100.00
10606;BME280;5350;42.698;23.148;2022-12-18T08:53:49;94912.06;;;4.41;100.00
10606;BME280;5350;42.698;23.148;2022-12-18T08:56:16;94911.94;;;4.36;100.00
10606;BME280;5350;42.698;23.148;2022-12-18T08:58:43;94901.47;;;4.24;100.00
10606;BME280;5350;42.698;23.148;2022-12-18T09:01:11;94906.44;;;4.44;100.00
10606;BME280;5350;42.698;23.148;2022-12-18T09:03:39;94907.75;;;4.35;100.00
10606;BME280;5350;42.698;23.148;2022-12-18T09:06:07;94907.75;;;4.35;100.00
10606;BME280;5350;42.698;23.148;2022-12-18T09:08:34;94910.91;;;4.37;100.00
10606;BME280;5350;42.698;23.148;2022-12-18T09:11:02;94907.69;;;4.53;100.00
10606;BME280;5350;42.698;23.148;2022-12-18T09:13:29;94909.56;;;4.64;100.00
10606;BME280;5350;42.698;23.148;2022-12-18T09:15:56;94916.06;;;4.73;100.00
10606;BME280;5350;42.698;23.148;2022-12-18T09:18:24;94910.31;;;4.82;100.00
10606;BME280;5350;42.698;23.148;2022-12-18T09:20:50;94907.94;;;4.81;100.00
10606;BME280;5350;42.698;23.148;2022-12-18T09:23:19;94910.38;;;4.94;100.00
10606;BME280;5350;42.698;23.148;2022-12-18T09:25:47;94904.72;;;5.09;100.00
10606;BME280;5350;42.698;23.148;2022-12-18T09:28:15;94925.28;;;5.17;100.00
10606;BME280;5350;42.698;23.148;2022-12-18T09:30:44;94906.91;;;5.23;100.00
10606;BME280;5350;42.698;23.148;2022-12-18T09:33:11;94911.22;;;5.29;100.00
10606;BME280;5350;42.698;23.148;2022-12-18T09:35:38;94909.41;;;5.41;100.00
10606;BME280;5350;42.698;23.148;2022-12-18T09:38:07;94917.81;;;5.55;100.00
10606;BME280;5350;42.698;23.148;2022-12-18T09:40:40;94917.50;;;5.63;98.97
10606;BME280;5350;42.698;23.148;2022-12-18T09:43:16;94914.19;;;5.67;95.14
10606;BME280;5350;42.698;23.148;2022-12-18T09:45:47;94919.97;;;5.69;94.83
10606;BME280;5350;42.698;23.148;2022-12-18T09:48:18;94926.56;;;5.72;95.79
10606;BME280;5350;42.698;23.148;2022-12-18T09:50:46;94923.75;;;5.74;94.48
10606;BME280;5350;42.698;23.148;2022-12-18T09:53:17;94921.00;;;5.68;96.30
10606;BME280;5350;42.698;23.148;2022-12-18T09:55:48;94918.84;;;5.77;96.25
10606;BME280;5350;42.698;23.148;2022-12-18T09:58:20;94914.69;;;5.88;96.00
10606;BME280;5350;42.698;23.148;2022-12-18T10:00:51;94913.50;;;5.72;94.47
10606;BME280;5350;42.698;23.148;2022-12-18T10:03:19;94908.97;;;5.79;93.38
10606;BME280;5350;42.698;23.148;2022-12-18T10:05:55;94908.28;;;5.72;93.88
10606;BME280;5350;42.698;23.148;2022-12-18T10:08:33;94916.69;;;5.62;91.45
10606;BME280;5350;42.698;23.148;2022-12-18T10:11:24;94916.81;;;5.56;93.22
10606;BME280;5350;42.698;23.148;2022-12-18T10:13:54;94912.38;;;5.56;94.52
10606;BME280;5350;42.698;23.148;2022-12-18T10:16:27;94903.75;;;5.67;96.08
10606;BME280;5350;42.698;23.148;2022-12-18T10:19:09;94910.22;;;5.65;96.66
10606;BME280;5350;42.698;23.148;2022-12-18T10:21:45;94917.81;;;5.66;94.70
10606;BME280;5350;42.698;23.148;2022-12-18T10:24:22;94913.06;;;5.52;91.67
10606;BME280;5350;42.698;23.148;2022-12-18T10:26:53;94930.28;;;5.41;90.79
10606;BME280;5350;42.698;23.148;2022-12-18T10:29:22;94922.09;;;5.26;92.08
10606;BME280;5350;42.698;23.148;2022-12-18T10:31:51;94918.69;;;5.14;91.73
10606;BME280;5350;42.698;23.148;2022-12-18T10:34:18;94920.84;;;5.29;94.70
10606;BME280;5350;42.698;23.148;2022-12-18T10:36:44;94927.56;;;5.36;92.17
10606;BME280;5350;42.698;23.148;2022-12-18T10:39:16;94931.09;;;5.42;94.22
10606;BME280;5350;42.698;23.148;2022-12-18T10:41:43;94927.91;;;5.40;93.57
10606;BME280;5350;42.698;23.148;2022-12-18T10:44:15;94932.00;;;5.47;89.69
10606;BME280;5350;42.698;23.148;2022-12-18T10:46:44;94922.09;;;5.26;87.66
10606;BME280;5350;42.698;23.148;2022-12-18T10:49:20;94921.13;;;4.98;88.65
10606;BME280;5350;42.698;23.148;2022-12-18T10:51:48;94924.91;;;4.72;89.07
10606;BME280;5350;42.698;23.148;2022-12-18T10:54:17;94922.94;;;4.67;88.52
10606;BME280;5350;42.698;23.148;2022-12-18T10:56:44;94919.97;;;4.52;91.41
10606;BME280;5350;42.698;23.148;2022-12-18T10:59:14;94922.38;;;4.65;92.62
10606;BME280;5350;42.698;23.148;2022-12-18T11:01:49;94919.56;;;4.67;92.88
10606;BME280;5350;42.698;23.148;2022-12-18T11:04:20;94923.06;;;4.61;90.37
10606;BME280;5350;42.698;23.148;2022-12-18T11:06:56;94932.91;;;4.59;90.74
10606;BME280;5350;42.698;23.148;2022-12-18T11:09:24;94926.47;;;4.43;88.82
10606;BME280;5350;42.698;23.148;2022-12-18T11:11:52;94923.72;;;4.38;89.48
10606;BME280;5350;42.698;23.148;2022-12-18T11:14:24;94922.88;;;4.44;90.89
10606;BME280;5350;42.698;23.148;2022-12-18T11:16:52;94919.22;;;4.45;91.10
10606;BME280;5350;42.698;23.148;2022-12-18T11:19:29;94922.75;;;4.51;91.68
10606;BME280;5350;42.698;23.148;2022-12-18T11:21:58;94928.09;;;4.44;90.96
10606;BME280;5350;42.698;23.148;2022-12-18T11:24:29;94933.63;;;4.48;90.85
10606;BME280;5350;42.698;23.148;2022-12-18T11:26:58;94940.22;;;4.50;90.46
10606;BME280;5350;42.698;23.148;2022-12-18T11:29:35;94935.94;;;4.56;91.76
10606;BME280;5350;42.698;23.148;2022-12-18T11:32:27;94930.31;;;4.59;90.96
10606;BME280;5350;42.698;23.148;2022-12-18T11:34:59;94936.78;;;4.68;90.25
10606;BME280;5350;42.698;23.148;2022-12-18T11:37:28;94928.16;;;4.38;88.38
10606;BME280;5350;42.698;23.148;2022-12-18T11:39:59;94938.88;;;4.59;91.97
10606;BME280;5350;42.698;23.148;2022-12-18T11:42:32;94942.47;;;4.76;88.98
10606;BME280;5350;42.698;23.148;2022-12-18T11:45:21;94941.16;;;4.85;88.02
10606;BME280;5350;42.698;23.148;2022-12-18T11:47:56;94937.50;;;4.75;88.14
10606;BME280;5350;42.698;23.148;2022-12-18T11:50:25;94940.69;;;4.77;87.29
10606;BME280;5350;42.698;23.148;2022-12-18T11:52:54;94940.44;;;4.78;88.48
10606;BME280;5350;42.698;23.148;2022-12-18T11:55:29;94934.63;;;4.65;86.15
10606;BME280;5350;42.698;23.148;2022-12-18T11:58:02;94939.69;;;4.60;84.19
10606;BME280;5350;42.698;23.148;2022-12-18T12:00:38;94923.78;;;4.50;85.55
10606;BME280;5350;42.698;23.148;2022-12-18T12:03:38;94920.06;;;4.57;86.38
10606;BME280;5350;42.698;23.148;2022-12-18T12:06:14;94932.50;;;4.44;86.45
10606;BME280;5350;42.698;23.148;2022-12-18T12:08:57;94928.53;;;4.53;86.51
10606;BME280;5350;42.698;23.148;2022-12-18T12:11:34;94919.16;;;4.52;88.47
10606;BME280;5350;42.698;23.148;2022-12-18T12:14:18;94931.06;;;4.59;88.13
10606;BME280;5350;42.698;23.148;2022-12-18T12:16:51;94916.50;;;4.70;88.54
10606;BME280;5350;42.698;23.148;2022-12-18T12:19:28;94929.69;;;4.75;87.99
10606;BME280;5350;42.698;23.148;2022-12-18T12:22:05;94933.38;;;4.97;87.59
10606;BME280;5350;42.698;23.148;2022-12-18T12:24:43;94932.47;;;5.03;85.45
10606;BME280;5350;42.698;23.148;2022-12-18T12:27:17;94926.38;;;5.09;86.19
10606;BME280;5350;42.698;23.148;2022-12-18T12:29:55;94939.34;;;5.27;86.19
10606;BME280;5350;42.698;23.148;2022-12-18T12:32:37;94933.00;;;5.23;84.56
10606;BME280;5350;42.698;23.148;2022-12-18T12:35:18;94929.66;;;5.05;87.18
10606;BME280;5350;42.698;23.148;2022-12-18T12:37:55;94924.59;;;5.21;88.13
10606;BME280;5350;42.698;23.148;2022-12-18T12:40:27;94912.13;;;5.23;88.84
10606;BME280;5350;42.698;23.148;2022-12-18T12:42:56;94923.38;;;5.47;87.74
10606;BME280;5350;42.698;23.148;2022-12-18T12:45:42;94934.84;;;5.57;87.58
10606;BME280;5350;42.698;23.148;2022-12-18T12:48:17;94928.28;;;5.66;86.26
10606;BME280;5350;42.698;23.148;2022-12-18T12:50:46;94939.41;;;5.74;84.93
10606;BME280;5350;42.698;23.148;2022-12-18T12:53:25;94934.75;;;5.76;85.00
10606;BME280;5350;42.698;23.148;2022-12-18T12:55:53;94937.94;;;5.78;84.05
10606;BME280;5350;42.698;23.148;2022-12-18T12:58:28;94935.22;;;5.84;83.82
10606;BME280;5350;42.698;23.148;2022-12-18T13:01:11;94949.19;;;5.90;82.47
10606;BME280;5350;42.698;23.148;2022-12-18T13:03:48;94943.97;;;5.90;82.55
10606;BME280;5350;42.698;23.148;2022-12-18T13:06:26;94948.38;;;6.01;81.57
10606;BME280;5350;42.698;23.148;2022-12-18T13:08:57;94947.03;;;5.87;85.04
10606;BME280;5350;42.698;23.148;2022-12-18T13:11:35;94946.47;;;5.85;81.55
10606;BME280;5350;42.698;23.148;2022-12-18T13:14:21;94960.97;;;5.69;82.30
10606;BME280;5350;42.698;23.148;2022-12-18T13:16:49;94964.81;;;5.66;82.72